Time;durP1;ratioP1;P1;durP2;ratioP2;P2;SDS_P1;SDS_P2;PMS_P1;PMS_P2;Temp;Humidity;BMP_temperature;BMP_pressure;BME280_temperature;BME280_humidity;BME280_pressure;Samples;Min_cycle;Max_cycle;Signal;HPM_P1;HPM_P2
2022/08/24 00:02:02;;;;;;;;;;;17.40;99.90;;;;;;5065406;28;20437;-74
2022/08/24 00:04:27;;;;;;;;;;;17.40;99.90;;;;;;5072008;28;19924;-75
2022/08/24 00:06:53;;;;;;;;;;;17.30;99.90;;;;;;5049987;28;19962;-75
2022/08/24 00:09:18;;;;;;;;;;;17.30;99.90;;;;;;5050445;28;19920;-74
2022/08/24 00:11:44;;;;;;;;;;;17.30;99.90;;;;;;5070994;28;20388;-75
2022/08/24 00:14:10;;;;;;;;;;;17.30;99.90;;;;;;5054411;28;20463;-74
2022/08/24 00:16:36;;;;;;;;;;;17.30;99.90;;;;;;5064605;28;19966;-74
2022/08/24 00:19:02;;;;;;;;;;;17.20;99.90;;;;;;5051333;28;20242;-74
2022/08/24 00:21:28;;;;;;;;;;;17.20;99.90;;;;;;5070113;28;19924;-74
2022/08/24 00:23:53;;;;;;;;;;;17.20;99.90;;;;;;5043956;28;20324;-75
2022/08/24 00:26:19;;;;;;;;;;;17.20;99.90;;;;;;5053545;28;20319;-74
2022/08/24 00:28:45;;;;;;;;;;;17.10;99.90;;;;;;5084832;28;19934;-75
2022/08/24 00:31:10;;;;;;;;;;;17.10;99.90;;;;;;5044522;28;19942;-74
2022/08/24 00:33:36;;;;;;;;;;;17.10;99.90;;;;;;5060309;28;19921;-74
2022/08/24 00:36:03;;;;;;;;;;;17.10;99.90;;;;;;5048381;28;19927;-74
2022/08/24 00:38:29;;;;;;;;;;;17.10;99.90;;;;;;5061573;28;19916;-75
2022/08/24 00:40:54;;;;;;;;;;;17.00;99.90;;;;;;5068771;28;19928;-74
2022/08/24 00:43:24;;;;;;;;;;;17.00;99.90;;;;;;5063249;28;19924;-74
2022/08/24 00:45:52;;;;;;;;;;;16.90;99.90;;;;;;5063146;28;19924;-74
2022/08/24 00:48:21;;;;;;;;;;;16.90;99.90;;;;;;5048447;28;19999;-74
2022/08/24 00:50:53;;;;;;;;;;;16.90;99.90;;;;;;5065421;28;20301;-74
2022/08/24 00:53:23;;;;;;;;;;;16.80;99.90;;;;;;5052777;28;19965;-74
2022/08/24 00:55:54;;;;;;;;;;;16.80;99.90;;;;;;5053756;28;20380;-74
2022/08/24 00:58:22;;;;;;;;;;;16.80;99.90;;;;;;5044652;28;19921;-74
2022/08/24 01:00:49;;;;;;;;;;;16.70;99.90;;;;;;5069568;28;19920;-74
2022/08/24 01:03:15;;;;;;;;;;;16.70;99.90;;;;;;5051420;28;19916;-74
2022/08/24 01:05:41;;;;;;;;;;;16.70;99.90;;;;;;5053654;28;19920;-74
2022/08/24 01:08:08;;;;;;;;;;;16.70;99.90;;;;;;5050239;28;20436;-74
2022/08/24 01:10:36;;;;;;;;;;;16.70;99.90;;;;;;5035696;28;19951;-74
2022/08/24 01:13:04;;;;;;;;;;;16.60;99.90;;;;;;5034821;28;19943;-74
2022/08/24 01:15:33;;;;;;;;;;;16.60;99.90;;;;;;5042364;28;19930;-74
2022/08/24 01:20:45;;;;;;;;;;;16.60;99.90;;;;;;5069038;28;19942;-74
2022/08/24 01:23:15;;;;;;;;;;;16.60;99.90;;;;;;5071055;28;19931;-74
2022/08/24 01:25:42;;;;;;;;;;;16.60;99.90;;;;;;5054162;28;19924;-74
2022/08/24 01:28:10;;;;;;;;;;;16.50;99.90;;;;;;5050118;28;19923;-74
2022/08/24 01:30:36;;;;;;;;;;;16.60;99.90;;;;;;5069142;28;19920;-74
2022/08/24 01:33:04;;;;;;;;;;;16.60;99.90;;;;;;5065349;28;19920;-74
2022/08/24 01:35:30;;;;;;;;;;;16.50;99.90;;;;;;5067442;28;19965;-74
2022/08/24 01:37:56;;;;;;;;;;;16.50;99.90;;;;;;5052604;28;19921;-74
2022/08/24 01:40:24;;;;;;;;;;;16.50;99.90;;;;;;5050867;28;20320;-74
2022/08/24 01:42:51;;;;;;;;;;;16.40;99.90;;;;;;5065459;28;20576;-74
2022/08/24 01:45:18;;;;;;;;;;;16.40;99.90;;;;;;5048509;28;20007;-74
2022/08/24 01:47:43;;;;;;;;;;;16.40;99.90;;;;;;5069671;28;19920;-74
2022/08/24 01:50:09;;;;;;;;;;;16.30;99.90;;;;;;5064382;28;20399;-74
2022/08/24 01:52:37;;;;;;;;;;;16.30;99.90;;;;;;5051347;28;19964;-74
2022/08/24 01:55:05;;;;;;;;;;;16.20;99.90;;;;;;5053578;28;20018;-74
2022/08/24 01:57:30;;;;;;;;;;;16.20;99.90;;;;;;5048345;28;19967;-74
2022/08/24 01:59:56;;;;;;;;;;;16.20;99.90;;;;;;5065286;28;20388;-73
2022/08/24 02:02:24;;;;;;;;;;;16.10;99.90;;;;;;5061440;28;19920;-74
2022/08/24 02:04:50;;;;;;;;;;;16.10;99.90;;;;;;5069465;28;19931;-74
2022/08/24 02:07:15;;;;;;;;;;;16.10;99.90;;;;;;5051169;28;19920;-74
2022/08/24 02:09:41;;;;;;;;;;;16.10;99.90;;;;;;5069527;28;20396;-74
2022/08/24 02:12:07;;;;;;;;;;;16.10;99.90;;;;;;5051331;28;20042;-74
2022/08/24 02:14:32;;;;;;;;;;;16.00;99.90;;;;;;5047488;28;20455;-74
2022/08/24 02:16:58;;;;;;;;;;;16.00;99.90;;;;;;5066289;28;19927;-74
2022/08/24 02:19:24;;;;;;;;;;;16.00;99.90;;;;;;5073494;28;19926;-74
2022/08/24 02:21:49;;;;;;;;;;;16.00;99.90;;;;;;5061127;28;19984;-74
2022/08/24 02:24:15;;;;;;;;;;;16.00;99.90;;;;;;5045404;28;19967;-74
2022/08/24 02:26:41;;;;;;;;;;;16.00;99.90;;;;;;5046675;28;20459;-74
2022/08/24 02:29:06;;;;;;;;;;;15.90;99.90;;;;;;5051302;28;19917;-73
2022/08/24 02:31:32;;;;;;;;;;;15.90;99.90;;;;;;5068335;28;19920;-74
2022/08/24 02:33:58;;;;;;;;;;;15.90;99.90;;;;;;5058779;28;19925;-74
2022/08/24 02:36:24;;;;;;;;;;;15.90;99.90;;;;;;5046763;28;19933;-74
2022/08/24 02:38:49;;;;;;;;;;;15.90;99.90;;;;;;5065349;28;19920;-73
2022/08/24 02:41:15;;;;;;;;;;;15.80;99.90;;;;;;5051974;28;19926;-74
2022/08/24 02:43:40;;;;;;;;;;;15.80;99.90;;;;;;5066111;28;19943;-75
2022/08/24 02:46:06;;;;;;;;;;;15.80;99.90;;;;;;5050312;28;19979;-74
2022/08/24 02:48:32;;;;;;;;;;;15.80;99.90;;;;;;5066381;28;19920;-73
2022/08/24 02:50:57;;;;;;;;;;;15.70;99.90;;;;;;5064268;28;19920;-74
2022/08/24 02:53:23;;;;;;;;;;;15.80;99.90;;;;;;5064112;28;19916;-74
2022/08/24 02:55:49;;;;;;;;;;;15.70;99.90;;;;;;5044132;28;19967;-74
2022/08/24 02:58:15;;;;;;;;;;;15.80;99.90;;;;;;5066694;28;20006;-74
2022/08/24 03:00:42;;;;;;;;;;;15.80;99.90;;;;;;5051467;28;20400;-74
2022/08/24 03:03:10;;;;;;;;;;;15.70;99.90;;;;;;5067687;28;19930;-74
2022/08/24 03:05:36;;;;;;;;;;;15.70;99.90;;;;;;5056136;28;19921;-74
2022/08/24 03:08:02;;;;;;;;;;;15.70;99.90;;;;;;5059778;28;19981;-73
2022/08/24 03:10:28;;;;;;;;;;;15.70;99.90;;;;;;5038687;28;19930;-74
2022/08/24 03:12:53;;;;;;;;;;;15.60;99.90;;;;;;5066622;28;19915;-74
2022/08/24 03:15:21;;;;;;;;;;;15.60;99.90;;;;;;5066779;28;20376;-74
2022/08/24 03:17:47;;;;;;;;;;;15.60;99.90;;;;;;5039603;28;19926;-74
2022/08/24 03:20:14;;;;;;;;;;;15.60;99.90;;;;;;5031095;28;19921;-74
2022/08/24 03:22:40;;;;;;;;;;;15.60;99.90;;;;;;5051062;28;19924;-74
2022/08/24 03:25:07;;;;;;;;;;;15.60;99.90;;;;;;5050289;28;19920;-74
2022/08/24 03:27:33;;;;;;;;;;;15.60;99.90;;;;;;5044177;28;20003;-74
2022/08/24 03:30:00;;;;;;;;;;;15.60;99.90;;;;;;5076424;28;20030;-74
2022/08/24 03:32:25;;;;;;;;;;;15.60;99.90;;;;;;5050737;28;19928;-74
2022/08/24 03:34:51;;;;;;;;;;;15.50;99.90;;;;;;5061228;28;19920;-74
2022/08/24 03:37:16;;;;;;;;;;;15.50;99.90;;;;;;5045160;28;19978;-74
2022/08/24 03:39:42;;;;;;;;;;;15.60;99.90;;;;;;5067361;28;20030;-74
2022/08/24 03:42:07;;;;;;;;;;;15.60;99.90;;;;;;5070377;28;19920;-74
2022/08/24 03:44:33;;;;;;;;;;;15.60;99.90;;;;;;5063366;28;20281;-74
2022/08/24 03:46:59;;;;;;;;;;;15.60;99.90;;;;;;5066306;28;19920;-74
2022/08/24 03:49:24;;;;;;;;;;;15.60;99.90;;;;;;5067799;28;19925;-74
2022/08/24 03:51:50;;;;;;;;;;;15.60;99.90;;;;;;5051185;28;19924;-74
2022/08/24 03:54:16;;;;;;;;;;;15.50;99.90;;;;;;5050779;28;20053;-74
2022/08/24 03:56:42;;;;;;;;;;;15.50;99.90;;;;;;5062666;28;19916;-74
2022/08/24 03:59:09;;;;;;;;;;;15.50;99.90;;;;;;5049745;28;19921;-74
2022/08/24 04:01:35;;;;;;;;;;;15.60;99.90;;;;;;5050418;28;20037;-74
2022/08/24 04:04:01;;;;;;;;;;;15.60;99.90;;;;;;5046071;28;20007;-74
2022/08/24 04:06:26;;;;;;;;;;;15.70;99.90;;;;;;5064494;28;19920;-74
2022/08/24 04:08:52;;;;;;;;;;;15.60;99.90;;;;;;5062395;28;19924;-74
2022/08/24 04:11:19;;;;;;;;;;;15.60;99.90;;;;;;5074951;28;20423;-74
2022/08/24 04:13:45;;;;;;;;;;;15.50;99.90;;;;;;5066171;28;20288;-74
2022/08/24 04:16:12;;;;;;;;;;;15.50;99.90;;;;;;5066206;28;20003;-74
2022/08/24 04:18:38;;;;;;;;;;;15.40;99.90;;;;;;5051295;28;20277;-74
2022/08/24 04:21:04;;;;;;;;;;;15.40;99.90;;;;;;5050401;28;19923;-73
2022/08/24 04:23:31;;;;;;;;;;;15.40;99.90;;;;;;5067298;28;19920;-73
2022/08/24 04:26:00;;;;;;;;;;;15.40;99.90;;;;;;5064843;28;19973;-73
2022/08/24 04:28:27;;;;;;;;;;;15.40;99.90;;;;;;5048235;28;20030;-74
2022/08/24 04:30:52;;;;;;;;;;;15.40;99.90;;;;;;5048808;28;20317;-74
2022/08/24 04:33:18;;;;;;;;;;;15.50;99.90;;;;;;5090626;28;19924;-74
2022/08/24 04:35:46;;;;;;;;;;;15.50;99.90;;;;;;5066781;28;20300;-74
2022/08/24 04:38:12;;;;;;;;;;;15.50;99.90;;;;;;5050154;28;19974;-74
2022/08/24 04:40:39;;;;;;;;;;;15.50;99.90;;;;;;5060701;28;19920;-74
2022/08/24 04:43:05;;;;;;;;;;;15.50;99.90;;;;;;5058478;28;19920;-74
2022/08/24 04:45:32;;;;;;;;;;;15.40;99.90;;;;;;5067111;28;19924;-75
2022/08/24 04:47:58;;;;;;;;;;;15.50;99.90;;;;;;5047737;28;20288;-74
2022/08/24 04:50:24;;;;;;;;;;;15.50;99.90;;;;;;5044002;28;19965;-74
2022/08/24 04:52:50;;;;;;;;;;;15.50;99.90;;;;;;5069376;28;19928;-74
2022/08/24 04:55:16;;;;;;;;;;;15.50;99.90;;;;;;5071939;28;20010;-74
2022/08/24 04:57:41;;;;;;;;;;;15.60;99.90;;;;;;5051886;28;19928;-74
2022/08/24 05:00:09;;;;;;;;;;;15.60;99.90;;;;;;5052860;28;20017;-74
2022/08/24 05:02:35;;;;;;;;;;;15.50;99.90;;;;;;5068153;28;19939;-74
2022/08/24 05:05:00;;;;;;;;;;;15.60;99.90;;;;;;5054228;28;19926;-74
2022/08/24 05:07:26;;;;;;;;;;;15.60;99.90;;;;;;5063781;28;19925;-73
2022/08/24 05:09:51;;;;;;;;;;;15.60;99.90;;;;;;5064146;28;19967;-74
2022/08/24 05:12:19;;;;;;;;;;;15.60;99.90;;;;;;5044588;28;19942;-74
2022/08/24 05:14:45;;;;;;;;;;;15.60;99.90;;;;;;5069849;28;19920;-74
2022/08/24 05:17:10;;;;;;;;;;;15.60;99.90;;;;;;5066076;28;20377;-74
2022/08/24 05:19:36;;;;;;;;;;;15.70;99.90;;;;;;5055388;28;19924;-74
2022/08/24 05:22:02;;;;;;;;;;;15.70;99.90;;;;;;5069483;28;19920;-74
2022/08/24 05:24:28;;;;;;;;;;;15.70;99.90;;;;;;5041837;28;19927;-74
2022/08/24 05:26:54;;;;;;;;;;;15.80;99.90;;;;;;5069910;28;19920;-73
2022/08/24 05:29:20;;;;;;;;;;;15.80;99.90;;;;;;5051591;28;19982;-74
2022/08/24 05:31:45;;;;;;;;;;;15.90;99.90;;;;;;5045231;28;19997;-74
2022/08/24 05:34:12;;;;;;;;;;;16.00;99.90;;;;;;5068554;28;19920;-74
2022/08/24 05:36:39;;;;;;;;;;;16.30;99.90;;;;;;5048382;28;19974;-74
2022/08/24 05:39:06;;;;;;;;;;;16.30;99.90;;;;;;5064784;28;20411;-74
2022/08/24 05:41:33;;;;;;;;;;;16.40;99.90;;;;;;5053042;28;19920;-74
2022/08/24 05:43:59;;;;;;;;;;;16.40;99.90;;;;;;5063662;28;20020;-74
2022/08/24 05:46:24;;;;;;;;;;;16.50;99.90;;;;;;5046231;28;19925;-74
2022/08/24 05:48:50;;;;;;;;;;;16.50;99.90;;;;;;5046354;28;20554;-74
2022/08/24 05:51:16;;;;;;;;;;;16.60;99.90;;;;;;5042477;28;19924;-74
2022/08/24 05:53:41;;;;;;;;;;;16.70;99.90;;;;;;5067943;28;20396;-74
2022/08/24 05:56:08;;;;;;;;;;;16.70;99.90;;;;;;5061332;28;20292;-74
2022/08/24 05:58:34;;;;;;;;;;;16.80;99.90;;;;;;5051150;28;20378;-74
2022/08/24 06:01:04;;;;;;;;;;;16.90;99.90;;;;;;5052618;28;20011;-74
2022/08/24 06:03:30;;;;;;;;;;;17.00;99.90;;;;;;5067835;28;19968;-74
2022/08/24 06:05:55;;;;;;;;;;;17.10;99.90;;;;;;5064179;28;20016;-74
2022/08/24 06:08:21;;;;;;;;;;;17.20;99.90;;;;;;5053659;28;19959;-74
2022/08/24 06:10:46;;;;;;;;;;;17.30;99.90;;;;;;5101163;28;19925;-74
2022/08/24 06:13:12;;;;;;;;;;;17.30;99.90;;;;;;5046013;28;19927;-74
2022/08/24 06:15:38;;;;;;;;;;;17.50;99.90;;;;;;5066496;28;19920;-74
2022/08/24 06:18:04;;;;;;;;;;;17.80;99.90;;;;;;5057911;28;19920;-74
2022/08/24 06:20:30;;;;;;;;;;;18.10;99.90;;;;;;5053858;28;19919;-74
2022/08/24 06:22:55;;;;;;;;;;;18.20;99.90;;;;;;5066296;28;19920;-75
2022/08/24 06:28:05;;;;;;;;;;;18.40;99.90;;;;;;5063824;28;19921;-75
2022/08/24 06:30:31;;;;;;;;;;;18.50;99.90;;;;;;5041244;28;19932;-75
2022/08/24 06:33:00;;;;;;;;;;;18.60;99.90;;;;;;5068859;28;19920;-75
2022/08/24 06:35:26;;;;;;;;;;;18.70;99.90;;;;;;5053257;28;19920;-75
2022/08/24 06:37:51;;;;;;;;;;;18.80;99.90;;;;;;5052499;28;19921;-75
2022/08/24 06:40:19;;;;;;;;;;;18.80;99.90;;;;;;5081411;28;20372;-75
2022/08/24 06:42:45;;;;;;;;;;;19.00;99.90;;;;;;5061820;28;19920;-75
2022/08/24 06:45:11;;;;;;;;;;;19.00;99.90;;;;;;5042291;28;19920;-75
2022/08/24 06:47:36;;;;;;;;;;;19.10;99.90;;;;;;5044607;28;20303;-75
2022/08/24 06:50:02;;;;;;;;;;;19.30;99.90;;;;;;5039185;28;20047;-75
2022/08/24 06:52:27;;;;;;;;;;;19.50;99.90;;;;;;5065895;28;19928;-75
2022/08/24 06:54:53;;;;;;;;;;;19.60;99.90;;;;;;5051164;28;20417;-75
2022/08/24 06:57:19;;;;;;;;;;;19.70;99.90;;;;;;5066040;28;20280;-75
2022/08/24 06:59:44;;;;;;;;;;;19.90;99.90;;;;;;5045691;28;20335;-75
2022/08/24 07:02:11;;;;;;;;;;;20.10;99.90;;;;;;5050000;28;20380;-75
2022/08/24 07:04:37;;;;;;;;;;;20.60;99.90;;;;;;5063307;28;20273;-75
2022/08/24 07:07:02;;;;;;;;;;;20.90;99.90;;;;;;5047872;28;19920;-75
2022/08/24 07:09:30;;;;;;;;;;;20.90;99.90;;;;;;5050019;28;20277;-75
2022/08/24 07:11:55;;;;;;;;;;;21.00;99.90;;;;;;5050989;28;19920;-75
2022/08/24 07:14:21;;;;;;;;;;;21.00;99.90;;;;;;5060171;28;19920;-75
2022/08/24 07:16:46;;;;;;;;;;;21.00;99.90;;;;;;5066818;28;19924;-75
2022/08/24 07:19:12;;;;;;;;;;;21.10;99.90;;;;;;5041945;28;19922;-75
2022/08/24 07:21:37;;;;;;;;;;;21.30;99.90;;;;;;5046429;28;19927;-75
2022/08/24 07:24:03;;;;;;;;;;;21.40;99.90;;;;;;5040204;28;19927;-75
2022/08/24 07:26:30;;;;;;;;;;;21.50;99.90;;;;;;5058745;28;20633;-75
2022/08/24 07:29:03;;;;;;;;;;;21.60;99.90;;;;;;5057250;28;19928;-75
2022/08/24 07:31:36;;;;;;;;;;;21.70;99.90;;;;;;5061033;28;19947;-75
2022/08/24 07:34:03;;;;;;;;;;;21.80;99.90;;;;;;5055700;28;20391;-75
2022/08/24 07:36:28;;;;;;;;;;;21.90;99.90;;;;;;5057871;28;20321;-75
2022/08/24 07:38:54;;;;;;;;;;;22.00;99.90;;;;;;5054539;28;19921;-75
2022/08/24 07:41:21;;;;;;;;;;;22.10;99.90;;;;;;5060200;28;19924;-75
2022/08/24 07:43:47;;;;;;;;;;;22.20;99.90;;;;;;5040938;28;20312;-75
2022/08/24 07:46:12;;;;;;;;;;;22.30;99.90;;;;;;5050362;28;19931;-75
2022/08/24 07:48:38;;;;;;;;;;;22.40;99.90;;;;;;5049160;28;19932;-76
2022/08/24 07:51:08;;;;;;;;;;;22.60;99.90;;;;;;5041042;28;19974;-76
2022/08/24 07:53:34;;;;;;;;;;;22.70;99.90;;;;;;5039718;28;19932;-76
2022/08/24 07:55:59;;;;;;;;;;;22.80;99.90;;;;;;5043092;28;20619;-75
2022/08/24 07:58:25;;;;;;;;;;;22.80;99.90;;;;;;5061515;28;19920;-75
2022/08/24 08:00:50;;;;;;;;;;;22.90;99.90;;;;;;5058756;28;19922;-76
2022/08/24 08:03:17;;;;;;;;;;;23.00;99.90;;;;;;5052146;28;19955;-75
2022/08/24 08:05:42;;;;;;;;;;;23.10;99.90;;;;;;5072432;28;19920;-76
2022/08/24 08:08:08;;;;;;;;;;;23.20;99.90;;;;;;5044986;28;20305;-75
2022/08/24 08:10:36;;;;;;;;;;;23.30;99.90;;;;;;5059931;28;20042;-76
2022/08/24 08:13:03;;;;;;;;;;;23.40;99.90;;;;;;5044707;28;20417;-75
2022/08/24 08:15:28;;;;;;;;;;;23.40;99.90;;;;;;5054986;28;19920;-75
2022/08/24 08:17:54;;;;;;;;;;;23.50;99.90;;;;;;5052856;28;19921;-76
2022/08/24 08:20:20;;;;;;;;;;;23.60;99.90;;;;;;5058790;28;19924;-76
2022/08/24 08:25:30;;;;;;;;;;;23.80;99.90;;;;;;5068498;28;20277;-76
2022/08/24 08:27:56;;;;;;;;;;;23.90;99.90;;;;;;5061501;28;19932;-76
2022/08/24 08:30:21;;;;;;;;;;;23.90;99.90;;;;;;5062960;28;20304;-76
2022/08/24 08:32:47;;;;;;;;;;;24.00;99.90;;;;;;5049053;28;19926;-76
2022/08/24 08:35:13;;;;;;;;;;;24.10;99.90;;;;;;5054256;28;20395;-76
2022/08/24 08:37:38;;;;;;;;;;;24.20;99.90;;;;;;5071336;28;19921;-76
2022/08/24 08:40:05;;;;;;;;;;;24.30;99.90;;;;;;5064617;28;19928;-76
2022/08/24 08:42:51;;;;;;;;;;;24.40;99.90;;;;;;5058128;28;19969;-76
2022/08/24 08:45:32;;;;;;;;;;;24.50;99.90;;;;;;5056462;28;19916;-76
2022/08/24 08:48:06;;;;;;;;;;;24.70;99.90;;;;;;5055913;28;19920;-76
2022/08/24 08:50:34;;;;;;;;;;;25.10;99.90;;;;;;5084654;28;19921;-76
2022/08/24 08:53:00;;;;;;;;;;;25.80;99.90;;;;;;5063973;28;19924;-76
2022/08/24 08:55:29;;;;;;;;;;;26.40;99.90;;;;;;5048183;28;20342;-76
2022/08/24 08:58:05;;;;;;;;;;;27.00;99.90;;;;;;5041698;28;20315;-76
2022/08/24 09:00:51;;;;;;;;;;;27.70;99.90;;;;;;5056272;28;20031;-76
2022/08/24 09:03:28;;;;;;;;;;;28.30;99.90;;;;;;5072049;28;19920;-76
2022/08/24 09:05:57;;;;;;;;;;;28.80;99.90;;;;;;5071490;28;20358;-76
2022/08/24 09:08:26;;;;;;;;;;;29.20;99.90;;;;;;5052258;28;19932;-76
2022/08/24 09:10:53;;;;;;;;;;;29.60;99.90;;;;;;5048104;28;20339;-76
2022/08/24 09:13:27;;;;;;;;;;;30.00;99.90;;;;;;5038036;28;20006;-76
2022/08/24 09:16:05;;;;;;;;;;;30.20;99.90;;;;;;5055855;28;19928;-76
2022/08/24 09:18:46;;;;;;;;;;;30.70;99.20;;;;;;5051811;28;19920;-76
2022/08/24 09:21:18;;;;;;;;;;;31.20;99.90;;;;;;5092927;28;19946;-75
2022/08/24 09:23:47;;;;;;;;;;;31.40;95.90;;;;;;5047546;28;20277;-76
2022/08/24 09:26:26;;;;;;;;;;;31.50;96.30;;;;;;5056010;28;19921;-76
2022/08/24 09:28:59;;;;;;;;;;;31.70;97.60;;;;;;5055818;28;19920;-76
2022/08/24 09:31:41;;;;;;;;;;;31.80;96.10;;;;;;5077807;28;19931;-76
2022/08/24 09:34:22;;;;;;;;;;;31.80;93.80;;;;;;5035702;28;19917;-77
2022/08/24 09:36:47;;;;;;;;;;;31.90;93.30;;;;;;5058819;28;20018;-77
2022/08/24 09:39:36;;;;;;;;;;;32.00;92.90;;;;;;5044253;28;19948;-76
2022/08/24 09:42:05;;;;;;;;;;;31.80;92.30;;;;;;5064157;28;19963;-76
2022/08/24 09:45:06;;;;;;;;;;;31.80;89.70;;;;;;5043638;28;20343;-76
2022/08/24 09:47:31;;;;;;;;;;;31.80;90.80;;;;;;5015315;28;20387;-76
2022/08/24 09:50:00;;;;;;;;;;;31.90;91.80;;;;;;4989898;28;19932;-76
2022/08/24 09:52:44;;;;;;;;;;;32.00;92.10;;;;;;4996804;28;19922;-76
2022/08/24 09:55:15;;;;;;;;;;;32.00;89.90;;;;;;5001779;28;20056;-76
2022/08/24 09:57:54;;;;;;;;;;;31.60;88.10;;;;;;5016234;28;19988;-77
2022/08/24 10:00:26;;;;;;;;;;;31.50;90.00;;;;;;5008712;28;19948;-76
2022/08/24 10:03:12;;;;;;;;;;;31.60;90.00;;;;;;4981338;28;19928;-76
2022/08/24 10:05:57;;;;;;;;;;;31.70;90.40;;;;;;4997129;28;19921;-76
2022/08/24 10:08:25;;;;;;;;;;;31.60;88.20;;;;;;5020058;28;19928;-77
2022/08/24 10:10:57;;;;;;;;;;;31.60;88.90;;;;;;4989410;28;19921;-76
2022/08/24 10:13:31;;;;;;;;;;;31.60;85.40;;;;;;4983139;28;19950;-74
2022/08/24 10:16:01;;;;;;;;;;;31.60;84.50;;;;;;5013264;28;19917;-74
2022/08/24 10:18:47;;;;;;;;;;;31.50;83.80;;;;;;5001007;28;19929;-75
2022/08/24 10:21:18;;;;;;;;;;;31.50;86.20;;;;;;4997433;28;19927;-75
2022/08/24 10:24:03;;;;;;;;;;;31.50;84.70;;;;;;5045026;28;19920;-74
2022/08/24 10:26:38;;;;;;;;;;;31.40;85.10;;;;;;5060827;28;19923;-74
2022/08/24 10:29:17;;;;;;;;;;;31.50;85.90;;;;;;5049142;28;19917;-74
2022/08/24 10:31:46;;;;;;;;;;;31.50;85.60;;;;;;5080574;28;19924;-75
2022/08/24 10:34:24;;;;;;;;;;;31.50;83.10;;;;;;5058011;28;19966;-75
2022/08/24 10:37:04;;;;;;;;;;;31.40;83.40;;;;;;5042467;28;19931;-75
2022/08/24 10:39:50;;;;;;;;;;;31.30;81.70;;;;;;5054338;28;20024;-76
2022/08/24 10:45:22;;;;;;;;;;;31.10;83.10;;;;;;5067124;28;19921;-75
2022/08/24 10:47:59;;;;;;;;;;;31.20;83.10;;;;;;5062526;28;19963;-76
2022/08/24 10:50:44;;;;;;;;;;;31.20;84.40;;;;;;5041598;28;20738;-75
2022/08/24 10:53:18;;;;;;;;;;;31.40;85.90;;;;;;5060084;28;19925;-76
2022/08/24 10:55:44;;;;;;;;;;;31.60;84.40;;;;;;5056628;28;20045;-75
2022/08/24 10:58:28;;;;;;;;;;;31.70;83.80;;;;;;5054461;28;20003;-75
2022/08/24 11:00:54;;;;;;;;;;;31.80;81.20;;;;;;5063329;28;19924;-76
2022/08/24 11:03:22;;;;;;;;;;;31.90;82.10;;;;;;5036180;28;19924;-75
2022/08/24 11:05:50;;;;;;;;;;;32.00;81.30;;;;;;5044897;28;19970;-76
2022/08/24 11:08:18;;;;;;;;;;;31.60;79.10;;;;;;5072051;28;19917;-76
2022/08/24 11:10:45;;;;;;;;;;;31.30;81.60;;;;;;5054824;28;20061;-75
2022/08/24 11:13:16;;;;;;;;;;;31.20;82.20;;;;;;5054102;28;19925;-75
2022/08/24 11:15:46;;;;;;;;;;;31.50;83.00;;;;;;5060761;28;19916;-75
2022/08/24 11:18:12;;;;;;;;;;;31.80;82.80;;;;;;5038981;28;20699;-75
2022/08/24 11:20:42;;;;;;;;;;;31.80;78.90;;;;;;5060484;28;19951;-75
2022/08/24 11:23:17;;;;;;;;;;;31.80;80.10;;;;;;5062591;28;19919;-75
2022/08/24 11:25:52;;;;;;;;;;;31.60;79.80;;;;;;5057364;28;19924;-75
2022/08/24 11:28:28;;;;;;;;;;;31.20;79.40;;;;;;5063968;28;19927;-75
2022/08/24 11:30:53;;;;;;;;;;;31.10;79.70;;;;;;5040865;28;19932;-75
2022/08/24 11:33:31;;;;;;;;;;;31.00;79.70;;;;;;5038635;28;19924;-75
2022/08/24 11:35:59;;;;;;;;;;;30.80;78.90;;;;;;5048264;28;19959;-75
2022/08/24 11:38:29;;;;;;;;;;;30.50;76.90;;;;;;5055198;28;19986;-75
2022/08/24 11:41:02;;;;;;;;;;;30.30;78.90;;;;;;5060532;28;20039;-74
2022/08/24 11:43:27;;;;;;;;;;;30.40;79.30;;;;;;5047283;28;19920;-75
2022/08/24 11:46:06;;;;;;;;;;;30.60;78.90;;;;;;5062785;28;19931;-75
2022/08/24 11:48:31;;;;;;;;;;;31.10;81.80;;;;;;5054650;28;19920;-75
2022/08/24 11:51:15;;;;;;;;;;;31.60;79.70;;;;;;5039793;28;19931;-74
2022/08/24 11:53:53;;;;;;;;;;;31.70;80.00;;;;;;5061737;28;19986;-75
2022/08/24 11:56:24;;;;;;;;;;;31.90;79.10;;;;;;5060415;28;19950;-75
2022/08/24 11:58:50;;;;;;;;;;;32.20;78.20;;;;;;5066244;28;19971;-75
2022/08/24 12:01:22;;;;;;;;;;;32.60;78.00;;;;;;5044651;28;19963;-75
2022/08/24 12:03:47;;;;;;;;;;;32.80;76.90;;;;;;5058243;28;19921;-75
2022/08/24 12:06:13;;;;;;;;;;;32.80;75.40;;;;;;5046364;28;19942;-75
2022/08/24 12:08:44;;;;;;;;;;;32.40;74.40;;;;;;5067018;28;19920;-75
2022/08/24 12:11:33;;;;;;;;;;;32.00;75.60;;;;;;5036567;28;19925;-75
2022/08/24 12:14:04;;;;;;;;;;;31.60;74.30;;;;;;5043546;28;19920;-75
2022/08/24 12:16:34;;;;;;;;;;;31.10;74.80;;;;;;5044204;28;20334;-76
2022/08/24 12:19:00;;;;;;;;;;;31.20;76.40;;;;;;5063235;28;19924;-74
2022/08/24 12:21:31;;;;;;;;;;;31.30;75.40;;;;;;5048158;28;20054;-75
2022/08/24 12:24:03;;;;;;;;;;;31.10;75.30;;;;;;5044949;28;20498;-76
2022/08/24 12:26:32;;;;;;;;;;;31.30;76.70;;;;;;5072149;28;20043;-76
2022/08/24 12:29:05;;;;;;;;;;;31.60;75.80;;;;;;5046957;28;19921;-75
2022/08/24 12:31:43;;;;;;;;;;;31.70;74.40;;;;;;5053432;28;19924;-76
2022/08/24 12:34:19;;;;;;;;;;;31.40;73.30;;;;;;5038237;28;20315;-75
2022/08/24 12:36:56;;;;;;;;;;;31.30;74.30;;;;;;5066578;28;20015;-75
2022/08/24 12:39:26;;;;;;;;;;;31.30;74.10;;;;;;5092954;28;19921;-75
2022/08/24 12:42:13;;;;;;;;;;;31.40;76.10;;;;;;5057664;28;19943;-74
2022/08/24 12:44:48;;;;;;;;;;;31.30;75.80;;;;;;5062178;28;19966;-75
2022/08/24 12:47:36;;;;;;;;;;;31.00;75.60;;;;;;5067386;28;20467;-75
2022/08/24 12:50:08;;;;;;;;;;;31.00;77.80;;;;;;5071644;28;20391;-75
2022/08/24 12:52:40;;;;;;;;;;;31.20;76.40;;;;;;5058240;28;20443;-75
2022/08/24 12:55:11;;;;;;;;;;;31.30;76.80;;;;;;5038082;28;20030;-75
2022/08/24 12:57:43;;;;;;;;;;;31.40;76.70;;;;;;5044110;28;20021;-75
2022/08/24 13:00:16;;;;;;;;;;;31.70;76.10;;;;;;5057398;28;20654;-75
2022/08/24 13:02:44;;;;;;;;;;;31.90;75.20;;;;;;5088157;28;19920;-75
2022/08/24 13:05:19;;;;;;;;;;;32.20;75.90;;;;;;5058142;28;19924;-75
2022/08/24 13:07:47;;;;;;;;;;;32.50;74.80;;;;;;5072845;28;19927;-75
2022/08/24 13:10:32;;;;;;;;;;;32.60;73.90;;;;;;5059784;28;19925;-75
2022/08/24 13:13:07;;;;;;;;;;;32.70;73.80;;;;;;5054414;28;20384;-75
2022/08/24 13:15:33;;;;;;;;;;;32.80;72.70;;;;;;5048917;28;19924;-75
2022/08/24 13:18:18;;;;;;;;;;;32.80;72.60;;;;;;5036632;28;19927;-75
2022/08/24 13:20:44;;;;;;;;;;;32.80;71.30;;;;;;5043610;28;20288;-75
2022/08/24 13:23:10;;;;;;;;;;;32.90;72.70;;;;;;5057011;28;19921;-75
2022/08/24 13:25:54;;;;;;;;;;;33.00;72.60;;;;;;5088530;28;19920;-75
2022/08/24 13:28:23;;;;;;;;;;;33.10;71.80;;;;;;5045486;28;19925;-75
2022/08/24 13:31:04;;;;;;;;;;;32.70;70.10;;;;;;5050398;28;19925;-76
2022/08/24 13:33:36;;;;;;;;;;;32.40;71.20;;;;;;5059881;28;19920;-74
2022/08/24 13:36:20;;;;;;;;;;;32.00;71.90;;;;;;5053038;28;19920;-75
2022/08/24 13:38:55;;;;;;;;;;;31.80;71.30;;;;;;5054838;28;20464;-74
2022/08/24 13:41:31;;;;;;;;;;;31.50;72.90;;;;;;5040036;28;19920;-75
2022/08/24 13:43:59;;;;;;;;;;;31.30;72.60;;;;;;5032939;28;20016;-75
2022/08/24 13:46:44;;;;;;;;;;;31.10;72.50;;;;;;5043228;28;20261;-75
2022/08/24 13:49:18;;;;;;;;;;;30.90;74.20;;;;;;5052188;28;20388;-75
2022/08/24 13:51:48;;;;;;;;;;;30.80;73.30;;;;;;5035629;28;19978;-75
2022/08/24 13:54:17;;;;;;;;;;;30.70;72.90;;;;;;5090275;28;19942;-75
2022/08/24 13:56:53;;;;;;;;;;;30.70;74.40;;;;;;5037501;28;19926;-75
2022/08/24 13:59:47;;;;;;;;;;;30.70;73.50;;;;;;5040091;28;20380;-75
2022/08/24 14:02:13;;;;;;;;;;;30.60;74.30;;;;;;5036239;28;19928;-75
2022/08/24 14:04:42;;;;;;;;;;;30.40;74.80;;;;;;5058068;28;19925;-75
2022/08/24 14:07:11;;;;;;;;;;;30.40;75.70;;;;;;5034813;28;19971;-75
2022/08/24 14:09:43;;;;;;;;;;;30.30;76.40;;;;;;5035417;28;20542;-74
2022/08/24 14:12:28;;;;;;;;;;;30.20;76.50;;;;;;5060452;28;19924;-75
2022/08/24 14:15:02;;;;;;;;;;;30.30;76.50;;;;;;5054062;28;19924;-75
2022/08/24 14:18:04;;;;;;;;;;;30.30;76.50;;;;;;5047052;28;19920;-75
2022/08/24 14:20:41;;;;;;;;;;;30.30;77.00;;;;;;5021404;28;19925;-75
2022/08/24 14:23:26;;;;;;;;;;;30.20;75.90;;;;;;5081193;28;20015;-75
2022/08/24 14:26:11;;;;;;;;;;;30.00;75.70;;;;;;5062169;28;20300;-75
2022/08/24 14:28:39;;;;;;;;;;;29.80;75.50;;;;;;5053740;28;19917;-75
2022/08/24 14:31:53;;;;;;;1999.90;999.90;;;29.60;75.60;;;;;;5121409;27;20435;-75
2022/08/24 14:34:26;;;;;;;1999.90;999.90;;;29.60;76.50;;;;;;5090417;28;20043;-75
2022/08/24 14:37:01;;;;;;;1999.90;999.90;;;29.50;76.40;;;;;;5081101;27;20046;-75
2022/08/24 14:39:47;;;;;;;1999.90;999.90;;;29.40;76.50;;;;;;5090013;28;20522;-74